sensor_id;sensor_type;location;lat;lon;timestamp;P1;durP1;ratioP1;P2;durP2;ratioP2
68178;SDS011;69812;42.632;23.440;2023-07-08T00:02:10;21.10;;;14.70;;
68178;SDS011;69812;42.632;23.440;2023-07-08T00:04:38;20.67;;;15.35;;
68178;SDS011;69812;42.632;23.440;2023-07-08T00:07:05;23.98;;;15.02;;
68178;SDS011;69812;42.632;23.440;2023-07-08T00:09:35;21.10;;;15.20;;
68178;SDS011;69812;42.632;23.440;2023-07-08T00:12:00;21.73;;;14.63;;
68178;SDS011;69812;42.632;23.440;2023-07-08T00:14:26;21.85;;;15.30;;
68178;SDS011;69812;42.632;23.440;2023-07-08T00:16:51;21.50;;;14.40;;
68178;SDS011;69812;42.632;23.440;2023-07-08T00:19:19;20.30;;;15.40;;
68178;SDS011;69812;42.632;23.440;2023-07-08T00:21:51;18.58;;;14.40;;
68178;SDS011;69812;42.632;23.440;2023-07-08T00:24:19;22.65;;;16.77;;
68178;SDS011;69812;42.632;23.440;2023-07-08T00:26:47;22.33;;;15.85;;
68178;SDS011;69812;42.632;23.440;2023-07-08T00:29:20;21.65;;;15.02;;
68178;SDS011;69812;42.632;23.440;2023-07-08T00:31:47;21.95;;;16.13;;
68178;SDS011;69812;42.632;23.440;2023-07-08T00:34:13;24.40;;;16.77;;
68178;SDS011;69812;42.632;23.440;2023-07-08T00:36:40;23.25;;;16.60;;
68178;SDS011;69812;42.632;23.440;2023-07-08T00:39:12;23.85;;;16.42;;
68178;SDS011;69812;42.632;23.440;2023-07-08T00:41:40;22.60;;;17.02;;
68178;SDS011;69812;42.632;23.440;2023-07-08T00:44:10;21.33;;;16.58;;
68178;SDS011;69812;42.632;23.440;2023-07-08T00:46:50;20.20;;;16.90;;
68178;SDS011;69812;42.632;23.440;2023-07-08T00:49:28;20.83;;;16.20;;
68178;SDS011;69812;42.632;23.440;2023-07-08T00:52:19;24.05;;;15.40;;
68178;SDS011;69812;42.632;23.440;2023-07-08T00:54:52;19.23;;;14.63;;
68178;SDS011;69812;42.632;23.440;2023-07-08T00:57:19;21.40;;;16.42;;
68178;SDS011;69812;42.632;23.440;2023-07-08T00:59:52;22.40;;;16.45;;
68178;SDS011;69812;42.632;23.440;2023-07-08T01:02:25;20.25;;;15.82;;
68178;SDS011;69812;42.632;23.440;2023-07-08T01:07:32;20.77;;;16.70;;
68178;SDS011;69812;42.632;23.440;2023-07-08T01:10:02;20.70;;;16.48;;
68178;SDS011;69812;42.632;23.440;2023-07-08T01:12:51;22.50;;;16.52;;
68178;SDS011;69812;42.632;23.440;2023-07-08T01:15:20;22.30;;;16.58;;
68178;SDS011;69812;42.632;23.440;2023-07-08T01:17:51;18.65;;;15.70;;
68178;SDS011;69812;42.632;23.440;2023-07-08T01:20:18;21.58;;;15.65;;
68178;SDS011;69812;42.632;23.440;2023-07-08T01:22:46;19.15;;;15.98;;
68178;SDS011;69812;42.632;23.440;2023-07-08T01:25:14;19.40;;;16.38;;
68178;SDS011;69812;42.632;23.440;2023-07-08T01:27:45;21.52;;;16.88;;
68178;SDS011;69812;42.632;23.440;2023-07-08T01:30:13;19.63;;;15.82;;
68178;SDS011;69812;42.632;23.440;2023-07-08T01:32:42;23.27;;;16.13;;
68178;SDS011;69812;42.632;23.440;2023-07-08T01:35:15;20.27;;;15.80;;
68178;SDS011;69812;42.632;23.440;2023-07-08T01:37:50;19.08;;;13.75;;
68178;SDS011;69812;42.632;23.440;2023-07-08T01:40:30;20.80;;;15.13;;
68178;SDS011;69812;42.632;23.440;2023-07-08T01:43:04;19.83;;;15.07;;
68178;SDS011;69812;42.632;23.440;2023-07-08T01:45:40;20.25;;;15.02;;
68178;SDS011;69812;42.632;23.440;2023-07-08T01:48:10;19.17;;;15.50;;
68178;SDS011;69812;42.632;23.440;2023-07-08T01:50:42;18.80;;;14.45;;
68178;SDS011;69812;42.632;23.440;2023-07-08T01:53:17;19.23;;;15.80;;
68178;SDS011;69812;42.632;23.440;2023-07-08T01:55:56;22.60;;;15.85;;
68178;SDS011;69812;42.632;23.440;2023-07-08T01:58:22;19.90;;;16.17;;
68178;SDS011;69812;42.632;23.440;2023-07-08T02:00:47;21.40;;;15.95;;
68178;SDS011;69812;42.632;23.440;2023-07-08T02:03:15;19.55;;;15.07;;
68178;SDS011;69812;42.632;23.440;2023-07-08T02:05:41;21.60;;;16.30;;
68178;SDS011;69812;42.632;23.440;2023-07-08T02:08:06;20.33;;;16.05;;
68178;SDS011;69812;42.632;23.440;2023-07-08T02:10:34;21.63;;;16.13;;
68178;SDS011;69812;42.632;23.440;2023-07-08T02:13:10;19.52;;;15.57;;
68178;SDS011;69812;42.632;23.440;2023-07-08T02:15:38;21.33;;;15.00;;
68178;SDS011;69812;42.632;23.440;2023-07-08T02:18:06;20.55;;;13.38;;
68178;SDS011;69812;42.632;23.440;2023-07-08T02:20:34;18.15;;;15.40;;
68178;SDS011;69812;42.632;23.440;2023-07-08T02:23:02;18.80;;;14.95;;
68178;SDS011;69812;42.632;23.440;2023-07-08T02:25:37;17.20;;;14.30;;
68178;SDS011;69812;42.632;23.440;2023-07-08T02:28:03;19.40;;;14.48;;
68178;SDS011;69812;42.632;23.440;2023-07-08T02:30:30;19.70;;;13.65;;
68178;SDS011;69812;42.632;23.440;2023-07-08T02:32:56;19.20;;;14.73;;
68178;SDS011;69812;42.632;23.440;2023-07-08T02:35:27;19.92;;;14.15;;
68178;SDS011;69812;42.632;23.440;2023-07-08T02:37:57;18.75;;;13.32;;
68178;SDS011;69812;42.632;23.440;2023-07-08T02:40:23;18.35;;;13.95;;
68178;SDS011;69812;42.632;23.440;2023-07-08T02:42:52;19.90;;;14.85;;
68178;SDS011;69812;42.632;23.440;2023-07-08T02:45:22;16.10;;;13.02;;
68178;SDS011;69812;42.632;23.440;2023-07-08T02:47:47;18.35;;;14.13;;
68178;SDS011;69812;42.632;23.440;2023-07-08T02:50:13;18.52;;;14.38;;
68178;SDS011;69812;42.632;23.440;2023-07-08T02:52:38;18.45;;;14.10;;
68178;SDS011;69812;42.632;23.440;2023-07-08T02:55:04;16.70;;;14.05;;
68178;SDS011;69812;42.632;23.440;2023-07-08T02:57:30;19.88;;;14.52;;
68178;SDS011;69812;42.632;23.440;2023-07-08T02:59:55;18.40;;;13.52;;
68178;SDS011;69812;42.632;23.440;2023-07-08T03:02:26;16.13;;;13.43;;
68178;SDS011;69812;42.632;23.440;2023-07-08T03:04:51;18.08;;;14.05;;
68178;SDS011;69812;42.632;23.440;2023-07-08T03:07:19;18.13;;;14.48;;
68178;SDS011;69812;42.632;23.440;2023-07-08T03:09:45;18.25;;;14.38;;
68178;SDS011;69812;42.632;23.440;2023-07-08T03:12:12;19.20;;;13.52;;
68178;SDS011;69812;42.632;23.440;2023-07-08T03:14:42;18.60;;;14.32;;
68178;SDS011;69812;42.632;23.440;2023-07-08T03:17:08;18.23;;;15.10;;
68178;SDS011;69812;42.632;23.440;2023-07-08T03:19:35;17.63;;;12.57;;
68178;SDS011;69812;42.632;23.440;2023-07-08T03:22:01;19.67;;;13.98;;
68178;SDS011;69812;42.632;23.440;2023-07-08T03:24:29;17.02;;;14.60;;
68178;SDS011;69812;42.632;23.440;2023-07-08T03:26:57;18.88;;;14.68;;
68178;SDS011;69812;42.632;23.440;2023-07-08T03:29:25;17.58;;;14.50;;
68178;SDS011;69812;42.632;23.440;2023-07-08T03:31:53;17.98;;;14.52;;
68178;SDS011;69812;42.632;23.440;2023-07-08T03:34:32;16.63;;;13.60;;
68178;SDS011;69812;42.632;23.440;2023-07-08T03:37:00;16.70;;;13.00;;
68178;SDS011;69812;42.632;23.440;2023-07-08T03:39:25;16.58;;;12.90;;
68178;SDS011;69812;42.632;23.440;2023-07-08T03:41:51;18.10;;;13.80;;
68178;SDS011;69812;42.632;23.440;2023-07-08T03:44:24;15.50;;;12.48;;
68178;SDS011;69812;42.632;23.440;2023-07-08T03:46:52;16.23;;;12.73;;
68178;SDS011;69812;42.632;23.440;2023-07-08T03:49:19;15.55;;;12.00;;
68178;SDS011;69812;42.632;23.440;2023-07-08T03:52:00;13.63;;;12.20;;
68178;SDS011;69812;42.632;23.440;2023-07-08T03:54:25;15.25;;;11.85;;
68178;SDS011;69812;42.632;23.440;2023-07-08T03:57:01;16.38;;;10.13;;
68178;SDS011;69812;42.632;23.440;2023-07-08T03:59:27;14.63;;;10.18;;
68178;SDS011;69812;42.632;23.440;2023-07-08T04:01:55;12.98;;;10.90;;
68178;SDS011;69812;42.632;23.440;2023-07-08T04:04:23;13.77;;;9.50;;
68178;SDS011;69812;42.632;23.440;2023-07-08T04:06:54;10.82;;;9.70;;
68178;SDS011;69812;42.632;23.440;2023-07-08T04:09:20;11.73;;;8.88;;
68178;SDS011;69812;42.632;23.440;2023-07-08T04:11:45;12.40;;;7.63;;
68178;SDS011;69812;42.632;23.440;2023-07-08T04:14:12;10.00;;;8.95;;
68178;SDS011;69812;42.632;23.440;2023-07-08T04:19:19;10.82;;;8.45;;
68178;SDS011;69812;42.632;23.440;2023-07-08T04:21:44;10.45;;;8.27;;
68178;SDS011;69812;42.632;23.440;2023-07-08T04:24:15;11.35;;;8.15;;
68178;SDS011;69812;42.632;23.440;2023-07-08T04:26:42;9.48;;;8.32;;
68178;SDS011;69812;42.632;23.440;2023-07-08T04:29:15;9.10;;;6.93;;
68178;SDS011;69812;42.632;23.440;2023-07-08T04:31:42;10.05;;;8.48;;
68178;SDS011;69812;42.632;23.440;2023-07-08T04:34:10;9.63;;;8.18;;
68178;SDS011;69812;42.632;23.440;2023-07-08T04:36:35;9.18;;;7.85;;
68178;SDS011;69812;42.632;23.440;2023-07-08T04:39:05;8.98;;;7.93;;
68178;SDS011;69812;42.632;23.440;2023-07-08T04:41:34;9.20;;;7.97;;
68178;SDS011;69812;42.632;23.440;2023-07-08T04:44:07;9.73;;;7.68;;
68178;SDS011;69812;42.632;23.440;2023-07-08T04:49:31;8.75;;;7.85;;
68178;SDS011;69812;42.632;23.440;2023-07-08T04:52:02;9.55;;;8.15;;
68178;SDS011;69812;42.632;23.440;2023-07-08T04:54:30;10.13;;;8.05;;
68178;SDS011;69812;42.632;23.440;2023-07-08T04:56:57;10.27;;;8.38;;
68178;SDS011;69812;42.632;23.440;2023-07-08T04:59:23;9.32;;;8.38;;
68178;SDS011;69812;42.632;23.440;2023-07-08T05:01:53;10.18;;;8.63;;
68178;SDS011;69812;42.632;23.440;2023-07-08T05:04:19;13.48;;;8.52;;
68178;SDS011;69812;42.632;23.440;2023-07-08T05:06:45;9.32;;;8.40;;
68178;SDS011;69812;42.632;23.440;2023-07-08T05:09:11;11.43;;;8.10;;
68178;SDS011;69812;42.632;23.440;2023-07-08T05:11:39;8.85;;;6.57;;
68178;SDS011;69812;42.632;23.440;2023-07-08T05:14:05;9.30;;;8.18;;
68178;SDS011;69812;42.632;23.440;2023-07-08T05:16:32;11.60;;;8.25;;
68178;SDS011;69812;42.632;23.440;2023-07-08T05:19:02;10.52;;;7.90;;
68178;SDS011;69812;42.632;23.440;2023-07-08T05:21:31;10.25;;;8.23;;
68178;SDS011;69812;42.632;23.440;2023-07-08T05:24:08;9.85;;;8.25;;
68178;SDS011;69812;42.632;23.440;2023-07-08T05:26:38;9.23;;;8.10;;
68178;SDS011;69812;42.632;23.440;2023-07-08T05:29:04;10.13;;;8.48;;
68178;SDS011;69812;42.632;23.440;2023-07-08T05:31:30;9.68;;;8.30;;
68178;SDS011;69812;42.632;23.440;2023-07-08T05:33:55;7.95;;;6.93;;
68178;SDS011;69812;42.632;23.440;2023-07-08T05:36:25;9.30;;;8.20;;
68178;SDS011;69812;42.632;23.440;2023-07-08T05:38:50;8.60;;;7.70;;
68178;SDS011;69812;42.632;23.440;2023-07-08T05:41:18;9.50;;;7.90;;
68178;SDS011;69812;42.632;23.440;2023-07-08T05:43:45;8.75;;;7.35;;
68178;SDS011;69812;42.632;23.440;2023-07-08T05:46:13;10.88;;;8.13;;
68178;SDS011;69812;42.632;23.440;2023-07-08T05:48:41;8.40;;;7.10;;
68178;SDS011;69812;42.632;23.440;2023-07-08T05:51:07;8.13;;;7.28;;
68178;SDS011;69812;42.632;23.440;2023-07-08T05:53:32;9.85;;;7.45;;
68178;SDS011;69812;42.632;23.440;2023-07-08T05:56:01;11.93;;;8.45;;
68178;SDS011;69812;42.632;23.440;2023-07-08T05:58:34;8.40;;;7.60;;
68178;SDS011;69812;42.632;23.440;2023-07-08T06:01:02;9.48;;;7.20;;
68178;SDS011;69812;42.632;23.440;2023-07-08T06:03:27;9.65;;;7.45;;
68178;SDS011;69812;42.632;23.440;2023-07-08T06:05:55;8.60;;;7.65;;
68178;SDS011;69812;42.632;23.440;2023-07-08T06:08:26;9.65;;;7.65;;
68178;SDS011;69812;42.632;23.440;2023-07-08T06:10:54;9.70;;;7.80;;
68178;SDS011;69812;42.632;23.440;2023-07-08T06:13:31;8.30;;;7.05;;
68178;SDS011;69812;42.632;23.440;2023-07-08T06:16:01;7.97;;;7.18;;
68178;SDS011;69812;42.632;23.440;2023-07-08T06:18:30;8.95;;;7.28;;
68178;SDS011;69812;42.632;23.440;2023-07-08T06:20:56;8.38;;;7.05;;
68178;SDS011;69812;42.632;23.440;2023-07-08T06:23:24;8.10;;;6.07;;
68178;SDS011;69812;42.632;23.440;2023-07-08T06:25:50;9.63;;;8.20;;
68178;SDS011;69812;42.632;23.440;2023-07-08T06:28:18;11.10;;;8.25;;
68178;SDS011;69812;42.632;23.440;2023-07-08T06:30:47;9.50;;;7.80;;
68178;SDS011;69812;42.632;23.440;2023-07-08T06:35:44;8.50;;;7.35;;
68178;SDS011;69812;42.632;23.440;2023-07-08T06:38:10;10.40;;;8.52;;
68178;SDS011;69812;42.632;23.440;2023-07-08T06:40:36;9.27;;;8.00;;
68178;SDS011;69812;42.632;23.440;2023-07-08T06:43:10;10.50;;;8.15;;
68178;SDS011;69812;42.632;23.440;2023-07-08T06:45:35;10.32;;;7.97;;
68178;SDS011;69812;42.632;23.440;2023-07-08T06:48:01;10.45;;;8.00;;
68178;SDS011;69812;42.632;23.440;2023-07-08T06:50:37;9.65;;;8.07;;
68178;SDS011;69812;42.632;23.440;2023-07-08T06:53:03;9.07;;;6.53;;
68178;SDS011;69812;42.632;23.440;2023-07-08T06:55:32;10.75;;;7.60;;
68178;SDS011;69812;42.632;23.440;2023-07-08T06:57:59;8.65;;;6.93;;
68178;SDS011;69812;42.632;23.440;2023-07-08T07:00:27;10.75;;;7.60;;
68178;SDS011;69812;42.632;23.440;2023-07-08T07:02:53;10.73;;;6.72;;
68178;SDS011;69812;42.632;23.440;2023-07-08T07:05:18;12.70;;;7.38;;
68178;SDS011;69812;42.632;23.440;2023-07-08T07:07:43;10.73;;;6.90;;
68178;SDS011;69812;42.632;23.440;2023-07-08T07:10:11;9.82;;;7.30;;
68178;SDS011;69812;42.632;23.440;2023-07-08T07:12:36;9.68;;;6.95;;
68178;SDS011;69812;42.632;23.440;2023-07-08T07:15:09;7.88;;;6.75;;
68178;SDS011;69812;42.632;23.440;2023-07-08T07:17:34;10.25;;;7.43;;
68178;SDS011;69812;42.632;23.440;2023-07-08T07:20:02;7.82;;;6.63;;
68178;SDS011;69812;42.632;23.440;2023-07-08T07:23:06;11.98;;;6.38;;
68178;SDS011;69812;42.632;23.440;2023-07-08T07:25:34;9.73;;;6.45;;
68178;SDS011;69812;42.632;23.440;2023-07-08T07:27:59;10.45;;;6.95;;
68178;SDS011;69812;42.632;23.440;2023-07-08T07:30:29;8.02;;;6.93;;
68178;SDS011;69812;42.632;23.440;2023-07-08T07:33:00;10.32;;;7.28;;
68178;SDS011;69812;42.632;23.440;2023-07-08T07:35:28;11.05;;;7.60;;
68178;SDS011;69812;42.632;23.440;2023-07-08T07:37:56;11.15;;;7.50;;
68178;SDS011;69812;42.632;23.440;2023-07-08T07:40:22;12.68;;;7.95;;
68178;SDS011;69812;42.632;23.440;2023-07-08T07:42:52;10.20;;;7.40;;
68178;SDS011;69812;42.632;23.440;2023-07-08T07:45:17;11.20;;;7.70;;
68178;SDS011;69812;42.632;23.440;2023-07-08T07:47:53;8.63;;;7.40;;
68178;SDS011;69812;42.632;23.440;2023-07-08T07:50:31;8.68;;;7.13;;
68178;SDS011;69812;42.632;23.440;2023-07-08T07:53:17;9.40;;;7.15;;
68178;SDS011;69812;42.632;23.440;2023-07-08T07:55:45;9.80;;;7.13;;
68178;SDS011;69812;42.632;23.440;2023-07-08T07:58:11;9.45;;;6.80;;
68178;SDS011;69812;42.632;23.440;2023-07-08T08:00:41;9.18;;;7.38;;
68178;SDS011;69812;42.632;23.440;2023-07-08T08:03:09;7.55;;;6.75;;
68178;SDS011;69812;42.632;23.440;2023-07-08T08:05:39;9.52;;;6.85;;
68178;SDS011;69812;42.632;23.440;2023-07-08T08:08:12;10.50;;;7.10;;
68178;SDS011;69812;42.632;23.440;2023-07-08T08:10:41;9.98;;;6.70;;
68178;SDS011;69812;42.632;23.440;2023-07-08T08:13:12;9.60;;;6.57;;
68178;SDS011;69812;42.632;23.440;2023-07-08T08:15:38;8.18;;;6.95;;
68178;SDS011;69812;42.632;23.440;2023-07-08T08:18:05;9.30;;;7.00;;
68178;SDS011;69812;42.632;23.440;2023-07-08T08:20:31;7.93;;;7.13;;
68178;SDS011;69812;42.632;23.440;2023-07-08T08:22:56;9.38;;;7.13;;
68178;SDS011;69812;42.632;23.440;2023-07-08T08:25:22;8.70;;;7.47;;
68178;SDS011;69812;42.632;23.440;2023-07-08T08:27:53;9.13;;;6.78;;
68178;SDS011;69812;42.632;23.440;2023-07-08T08:30:19;8.73;;;7.00;;
68178;SDS011;69812;42.632;23.440;2023-07-08T08:32:47;9.40;;;7.30;;
68178;SDS011;69812;42.632;23.440;2023-07-08T08:35:13;8.77;;;7.22;;
68178;SDS011;69812;42.632;23.440;2023-07-08T08:37:45;8.20;;;6.72;;
68178;SDS011;69812;42.632;23.440;2023-07-08T08:40:17;8.23;;;7.30;;
68178;SDS011;69812;42.632;23.440;2023-07-08T08:45:58;8.30;;;7.00;;
68178;SDS011;69812;42.632;23.440;2023-07-08T08:48:38;8.40;;;7.22;;
68178;SDS011;69812;42.632;23.440;2023-07-08T08:51:18;8.75;;;7.65;;
68178;SDS011;69812;42.632;23.440;2023-07-08T08:53:46;9.18;;;8.02;;
68178;SDS011;69812;42.632;23.440;2023-07-08T08:56:26;8.38;;;7.15;;
68178;SDS011;69812;42.632;23.440;2023-07-08T09:01:23;8.68;;;7.80;;
68178;SDS011;69812;42.632;23.440;2023-07-08T09:03:59;9.07;;;7.50;;
68178;SDS011;69812;42.632;23.440;2023-07-08T09:06:29;8.45;;;7.40;;
68178;SDS011;69812;42.632;23.440;2023-07-08T09:09:03;8.18;;;7.38;;
68178;SDS011;69812;42.632;23.440;2023-07-08T09:11:48;8.25;;;7.22;;
68178;SDS011;69812;42.632;23.440;2023-07-08T09:14:26;7.72;;;6.30;;
68178;SDS011;69812;42.632;23.440;2023-07-08T09:20:11;9.88;;;7.88;;
68178;SDS011;69812;42.632;23.440;2023-07-08T09:25:40;9.63;;;7.20;;
68178;SDS011;69812;42.632;23.440;2023-07-08T09:34:52;8.88;;;6.95;;
68178;SDS011;69812;42.632;23.440;2023-07-08T09:37:31;8.27;;;6.78;;
68178;SDS011;69812;42.632;23.440;2023-07-08T09:39:59;7.97;;;7.18;;
68178;SDS011;69812;42.632;23.440;2023-07-08T09:42:29;8.90;;;7.28;;
68178;SDS011;69812;42.632;23.440;2023-07-08T09:45:16;9.00;;;6.68;;
68178;SDS011;69812;42.632;23.440;2023-07-08T09:47:46;10.80;;;7.00;;
68178;SDS011;69812;42.632;23.440;2023-07-08T09:52:43;8.63;;;7.20;;
68178;SDS011;69812;42.632;23.440;2023-07-08T09:55:13;8.77;;;6.07;;
68178;SDS011;69812;42.632;23.440;2023-07-08T09:57:39;9.73;;;6.55;;
68178;SDS011;69812;42.632;23.440;2023-07-08T10:00:15;7.07;;;5.97;;
68178;SDS011;69812;42.632;23.440;2023-07-08T10:02:45;9.75;;;6.30;;
68178;SDS011;69812;42.632;23.440;2023-07-08T10:07:39;6.93;;;6.10;;
68178;SDS011;69812;42.632;23.440;2023-07-08T10:10:06;7.20;;;6.05;;
68178;SDS011;69812;42.632;23.440;2023-07-08T10:12:42;9.95;;;6.20;;
68178;SDS011;69812;42.632;23.440;2023-07-08T10:17:47;8.70;;;6.05;;
68178;SDS011;69812;42.632;23.440;2023-07-08T10:20:13;9.35;;;6.03;;
68178;SDS011;69812;42.632;23.440;2023-07-08T10:22:45;9.77;;;6.40;;
68178;SDS011;69812;42.632;23.440;2023-07-08T10:25:29;8.60;;;5.22;;
68178;SDS011;69812;42.632;23.440;2023-07-08T10:31:11;6.50;;;5.57;;
68178;SDS011;69812;42.632;23.440;2023-07-08T10:36:45;6.68;;;5.78;;
68178;SDS011;69812;42.632;23.440;2023-07-08T10:41:53;6.50;;;5.80;;
68178;SDS011;69812;42.632;23.440;2023-07-08T10:50:07;6.45;;;5.75;;
68178;SDS011;69812;42.632;23.440;2023-07-08T10:56:16;7.35;;;5.53;;
68178;SDS011;69812;42.632;23.440;2023-07-08T11:02:13;6.18;;;5.57;;
68178;SDS011;69812;42.632;23.440;2023-07-08T11:07:36;7.03;;;5.30;;
68178;SDS011;69812;42.632;23.440;2023-07-08T11:10:18;6.15;;;5.55;;
68178;SDS011;69812;42.632;23.440;2023-07-08T11:12:52;6.35;;;4.35;;
68178;SDS011;69812;42.632;23.440;2023-07-08T11:15:35;6.07;;;5.10;;
68178;SDS011;69812;42.632;23.440;2023-07-08T11:18:14;7.43;;;5.75;;
68178;SDS011;69812;42.632;23.440;2023-07-08T11:20:50;6.78;;;5.47;;
68178;SDS011;69812;42.632;23.440;2023-07-08T11:23:33;8.05;;;5.70;;
68178;SDS011;69812;42.632;23.440;2023-07-08T11:29:01;8.50;;;4.95;;
68178;SDS011;69812;42.632;23.440;2023-07-08T11:31:31;5.30;;;4.63;;
68178;SDS011;69812;42.632;23.440;2023-07-08T11:34:01;5.75;;;5.13;;
68178;SDS011;69812;42.632;23.440;2023-07-08T11:36:30;6.68;;;5.47;;
68178;SDS011;69812;42.632;23.440;2023-07-08T11:38:58;6.72;;;5.57;;
68178;SDS011;69812;42.632;23.440;2023-07-08T11:41:27;6.30;;;4.95;;
68178;SDS011;69812;42.632;23.440;2023-07-08T11:43:59;7.38;;;5.40;;
68178;SDS011;69812;42.632;23.440;2023-07-08T11:46:31;5.22;;;4.63;;
68178;SDS011;69812;42.632;23.440;2023-07-08T11:49:01;5.40;;;4.65;;
68178;SDS011;69812;42.632;23.440;2023-07-08T11:51:30;6.35;;;5.13;;
68178;SDS011;69812;42.632;23.440;2023-07-08T11:54:28;5.82;;;4.80;;
68178;SDS011;69812;42.632;23.440;2023-07-08T11:57:03;6.13;;;5.05;;
68178;SDS011;69812;42.632;23.440;2023-07-08T11:59:32;6.18;;;4.93;;
68178;SDS011;69812;42.632;23.440;2023-07-08T12:02:19;7.05;;;5.05;;
68178;SDS011;69812;42.632;23.440;2023-07-08T12:05:01;7.25;;;5.10;;
68178;SDS011;69812;42.632;23.440;2023-07-08T12:07:31;5.88;;;4.90;;
68178;SDS011;69812;42.632;23.440;2023-07-08T12:10:05;6.97;;;5.78;;
68178;SDS011;69812;42.632;23.440;2023-07-08T12:12:36;5.88;;;5.10;;
68178;SDS011;69812;42.632;23.440;2023-07-08T12:15:22;7.32;;;5.10;;
68178;SDS011;69812;42.632;23.440;2023-07-08T12:17:54;8.45;;;5.03;;
68178;SDS011;69812;42.632;23.440;2023-07-08T12:20:27;6.75;;;4.90;;
68178;SDS011;69812;42.632;23.440;2023-07-08T12:22:56;7.85;;;5.20;;
68178;SDS011;69812;42.632;23.440;2023-07-08T12:25:32;6.28;;;5.03;;
68178;SDS011;69812;42.632;23.440;2023-07-08T12:28:02;7.07;;;4.63;;
68178;SDS011;69812;42.632;23.440;2023-07-08T12:30:46;5.85;;;5.22;;
68178;SDS011;69812;42.632;23.440;2023-07-08T12:33:13;6.38;;;4.65;;
68178;SDS011;69812;42.632;23.440;2023-07-08T12:35:42;6.15;;;4.70;;
68178;SDS011;69812;42.632;23.440;2023-07-08T12:38:27;5.97;;;4.88;;
68178;SDS011;69812;42.632;23.440;2023-07-08T12:40:55;6.50;;;4.28;;
68178;SDS011;69812;42.632;23.440;2023-07-08T12:43:25;5.95;;;4.72;;
68178;SDS011;69812;42.632;23.440;2023-07-08T12:45:53;5.90;;;4.82;;
68178;SDS011;69812;42.632;23.440;2023-07-08T12:48:22;7.15;;;4.97;;
68178;SDS011;69812;42.632;23.440;2023-07-08T12:50:52;6.95;;;4.20;;
68178;SDS011;69812;42.632;23.440;2023-07-08T12:53:21;6.32;;;4.25;;
68178;SDS011;69812;42.632;23.440;2023-07-08T12:55:51;6.57;;;4.53;;
68178;SDS011;69812;42.632;23.440;2023-07-08T12:58:24;6.15;;;4.57;;
68178;SDS011;69812;42.632;23.440;2023-07-08T13:00:55;5.75;;;4.10;;
68178;SDS011;69812;42.632;23.440;2023-07-08T13:03:29;5.22;;;4.20;;
68178;SDS011;69812;42.632;23.440;2023-07-08T13:05:57;6.18;;;4.75;;
68178;SDS011;69812;42.632;23.440;2023-07-08T13:08:25;5.80;;;3.97;;
68178;SDS011;69812;42.632;23.440;2023-07-08T13:10:57;5.47;;;4.38;;
68178;SDS011;69812;42.632;23.440;2023-07-08T13:13:30;5.32;;;4.20;;
68178;SDS011;69812;42.632;23.440;2023-07-08T13:16:01;7.63;;;4.50;;
68178;SDS011;69812;42.632;23.440;2023-07-08T13:18:32;7.03;;;3.65;;
68178;SDS011;69812;42.632;23.440;2023-07-08T13:21:04;7.05;;;4.10;;
68178;SDS011;69812;42.632;23.440;2023-07-08T13:23:35;5.47;;;3.50;;
68178;SDS011;69812;42.632;23.440;2023-07-08T13:26:11;5.40;;;4.55;;
68178;SDS011;69812;42.632;23.440;2023-07-08T13:28:41;6.55;;;3.70;;
68178;SDS011;69812;42.632;23.440;2023-07-08T13:31:14;6.32;;;4.30;;
68178;SDS011;69812;42.632;23.440;2023-07-08T13:34:05;5.13;;;4.18;;
68178;SDS011;69812;42.632;23.440;2023-07-08T13:36:38;5.38;;;3.40;;
68178;SDS011;69812;42.632;23.440;2023-07-08T13:39:06;6.18;;;4.35;;
68178;SDS011;69812;42.632;23.440;2023-07-08T13:41:47;5.53;;;4.38;;
68178;SDS011;69812;42.632;23.440;2023-07-08T13:44:15;3.88;;;3.47;;
68178;SDS011;69812;42.632;23.440;2023-07-08T13:47:03;7.00;;;4.30;;
68178;SDS011;69812;42.632;23.440;2023-07-08T13:50:05;4.90;;;4.10;;
68178;SDS011;69812;42.632;23.440;2023-07-08T13:52:44;5.60;;;3.80;;
68178;SDS011;69812;42.632;23.440;2023-07-08T13:55:15;5.15;;;4.20;;
68178;SDS011;69812;42.632;23.440;2023-07-08T13:58:01;4.60;;;4.03;;
68178;SDS011;69812;42.632;23.440;2023-07-08T14:00:30;4.72;;;4.07;;
68178;SDS011;69812;42.632;23.440;2023-07-08T14:02:58;4.32;;;3.90;;
68178;SDS011;69812;42.632;23.440;2023-07-08T14:05:31;5.55;;;4.10;;
68178;SDS011;69812;42.632;23.440;2023-07-08T14:08:01;5.53;;;4.28;;
68178;SDS011;69812;42.632;23.440;2023-07-08T14:10:29;8.20;;;4.55;;
68178;SDS011;69812;42.632;23.440;2023-07-08T14:12:57;5.65;;;3.40;;
68178;SDS011;69812;42.632;23.440;2023-07-08T14:15:22;4.25;;;3.78;;
68178;SDS011;69812;42.632;23.440;2023-07-08T14:17:48;4.47;;;3.70;;
68178;SDS011;69812;42.632;23.440;2023-07-08T14:20:16;5.90;;;3.67;;
68178;SDS011;69812;42.632;23.440;2023-07-08T14:22:49;5.15;;;3.88;;
68178;SDS011;69812;42.632;23.440;2023-07-08T14:25:16;5.95;;;3.63;;
68178;SDS011;69812;42.632;23.440;2023-07-08T14:27:46;4.43;;;3.83;;
68178;SDS011;69812;42.632;23.440;2023-07-08T14:30:14;4.30;;;3.35;;
68178;SDS011;69812;42.632;23.440;2023-07-08T14:32:43;4.60;;;3.78;;
68178;SDS011;69812;42.632;23.440;2023-07-08T14:37:51;5.13;;;3.65;;
68178;SDS011;69812;42.632;23.440;2023-07-08T14:43:03;4.75;;;3.80;;
68178;SDS011;69812;42.632;23.440;2023-07-08T14:45:39;5.20;;;3.13;;
68178;SDS011;69812;42.632;23.440;2023-07-08T14:48:16;4.88;;;3.80;;
68178;SDS011;69812;42.632;23.440;2023-07-08T14:50:44;6.65;;;4.00;;
68178;SDS011;69812;42.632;23.440;2023-07-08T14:53:22;4.97;;;3.25;;
68178;SDS011;69812;42.632;23.440;2023-07-08T14:55:49;6.20;;;4.13;;
68178;SDS011;69812;42.632;23.440;2023-07-08T14:58:22;5.47;;;3.75;;
68178;SDS011;69812;42.632;23.440;2023-07-08T15:00:53;6.28;;;3.70;;
68178;SDS011;69812;42.632;23.440;2023-07-08T15:03:23;5.75;;;4.03;;
68178;SDS011;69812;42.632;23.440;2023-07-08T15:05:52;5.38;;;3.88;;
68178;SDS011;69812;42.632;23.440;2023-07-08T15:08:18;7.05;;;3.95;;
68178;SDS011;69812;42.632;23.440;2023-07-08T15:10:49;5.60;;;3.78;;
68178;SDS011;69812;42.632;23.440;2023-07-08T15:13:28;6.60;;;3.78;;
68178;SDS011;69812;42.632;23.440;2023-07-08T15:15:54;5.25;;;3.67;;
68178;SDS011;69812;42.632;23.440;2023-07-08T15:18:20;5.15;;;3.00;;
68178;SDS011;69812;42.632;23.440;2023-07-08T15:20:48;6.97;;;4.40;;
68178;SDS011;69812;42.632;23.440;2023-07-08T15:23:16;5.20;;;3.92;;
68178;SDS011;69812;42.632;23.440;2023-07-08T15:25:44;7.18;;;4.00;;
68178;SDS011;69812;42.632;23.440;2023-07-08T15:28:17;5.20;;;4.00;;
68178;SDS011;69812;42.632;23.440;2023-07-08T15:30:51;7.35;;;4.20;;
68178;SDS011;69812;42.632;23.440;2023-07-08T15:33:19;6.18;;;3.95;;
68178;SDS011;69812;42.632;23.440;2023-07-08T15:35:47;6.20;;;4.40;;
68178;SDS011;69812;42.632;23.440;2023-07-08T15:38:15;7.00;;;3.80;;
68178;SDS011;69812;42.632;23.440;2023-07-08T15:40:44;6.07;;;4.10;;
68178;SDS011;69812;42.632;23.440;2023-07-08T15:43:13;5.40;;;4.28;;
68178;SDS011;69812;42.632;23.440;2023-07-08T15:45:40;6.38;;;4.32;;
68178;SDS011;69812;42.632;23.440;2023-07-08T15:48:16;5.97;;;4.38;;
68178;SDS011;69812;42.632;23.440;2023-07-08T15:50:45;7.38;;;4.50;;
68178;SDS011;69812;42.632;23.440;2023-07-08T15:53:10;7.05;;;4.53;;
68178;SDS011;69812;42.632;23.440;2023-07-08T15:55:38;6.25;;;4.22;;